createdAt,value
2019-01-25T00:01:53.442Z,-2.67
2019-01-25T00:04:24.157Z,-2.67
2019-01-25T00:06:54.809Z,-2.67
2019-01-25T00:09:27.715Z,-2.67
2019-01-25T00:11:58.913Z,-2.66
2019-01-25T00:14:29.366Z,-2.68
2019-01-25T00:16:59.680Z,-2.67
2019-01-25T00:19:30.193Z,-2.67
2019-01-25T00:22:00.494Z,-2.68
2019-01-25T00:24:30.797Z,-2.67
2019-01-25T00:27:01.294Z,-2.68
2019-01-25T00:29:31.903Z,-2.71
2019-01-25T00:32:02.233Z,-2.71
2019-01-25T00:34:32.953Z,-2.68
2019-01-25T00:37:04.704Z,-2.68
2019-01-25T00:39:35.341Z,-2.67
2019-01-25T00:42:05.750Z,-2.69
2019-01-25T00:44:36.616Z,-2.67
2019-01-25T00:47:07.144Z,-2.68
2019-01-25T00:49:40.587Z,-2.67
2019-01-25T00:52:11.365Z,-2.67
2019-01-25T00:54:42.074Z,-2.67
2019-01-25T00:57:18.179Z,-2.66
2019-01-25T00:59:48.716Z,-2.67
2019-01-25T01:02:19.273Z,-2.67
2019-01-25T01:04:52.047Z,-2.66
2019-01-25T01:07:22.344Z,-2.67
2019-01-25T01:09:54.253Z,-2.66
2019-01-25T01:12:24.784Z,-2.64
2019-01-25T01:14:56.995Z,-2.63
2019-01-25T01:17:27.485Z,-2.62
2019-01-25T01:19:58.022Z,-2.59
2019-01-25T01:22:28.890Z,-2.57
2019-01-25T01:25:04.293Z,-2.59
2019-01-25T01:27:34.907Z,-2.59
2019-01-25T01:30:06.602Z,-2.57
2019-01-25T01:32:45.548Z,-2.57
2019-01-25T01:35:18.372Z,-2.58
2019-01-25T01:37:49.137Z,-2.58
2019-01-25T01:40:24.892Z,-2.56
2019-01-25T01:42:55.744Z,-2.57
2019-01-25T01:45:26.225Z,-2.57
2019-01-25T01:48:05.524Z,-2.57
2019-01-25T01:50:35.931Z,-2.53
2019-01-25T01:53:06.286Z,-2.54
2019-01-25T01:55:36.677Z,-2.51
2019-01-25T01:58:06.984Z,-2.53
2019-01-25T02:00:37.925Z,-2.53
2019-01-25T02:03:08.236Z,-2.54
2019-01-25T02:05:40.316Z,-2.55
2019-01-25T02:08:10.623Z,-2.54
2019-01-25T02:10:43.596Z,-2.53
2019-01-25T02:13:13.886Z,-2.50
2019-01-25T02:15:45.493Z,-2.48
2019-01-25T02:18:15.831Z,-2.48
2019-01-25T02:20:46.484Z,-2.46
2019-01-25T02:23:20.396Z,-2.45
2019-01-25T02:25:51.455Z,-2.44
2019-01-25T02:28:22.030Z,-2.44
2019-01-25T02:30:52.534Z,-2.43
2019-01-25T02:33:22.958Z,-2.39
2019-01-25T02:35:53.391Z,-2.37
2019-01-25T02:38:25.422Z,-2.35
2019-01-25T02:40:55.784Z,-2.36
2019-01-25T02:43:26.466Z,-2.36
2019-01-25T02:45:56.757Z,-2.37
2019-01-25T02:48:27.029Z,-2.36
2019-01-25T02:50:57.717Z,-2.35
2019-01-25T02:53:38.623Z,-2.36
2019-01-25T02:56:09.376Z,-2.36
2019-01-25T02:58:39.649Z,-2.33
2019-01-25T03:01:09.919Z,-2.32
2019-01-25T03:03:40.288Z,-2.32
2019-01-25T03:06:10.854Z,-2.30
2019-01-25T03:08:43.522Z,-2.30
2019-01-25T03:11:13.913Z,-2.30
2019-01-25T03:13:48.886Z,-2.31
2019-01-25T03:16:19.368Z,-2.31
2019-01-25T03:18:50.013Z,-2.28
2019-01-25T03:21:21.620Z,-2.27
2019-01-25T03:23:51.932Z,-2.27
2019-01-25T03:26:23.521Z,-2.27
2019-01-25T03:28:55.073Z,-2.25
2019-01-25T03:31:27.263Z,-2.23
2019-01-25T03:33:59.654Z,-2.23
2019-01-25T03:36:29.961Z,-2.24
2019-01-25T03:39:00.329Z,-2.24
2019-01-25T03:41:30.850Z,-2.23
2019-01-25T03:44:01.155Z,-2.24
2019-01-25T03:46:31.512Z,-2.24
2019-01-25T03:49:05.849Z,-2.25
2019-01-25T03:51:36.185Z,-2.25
2019-01-25T03:54:06.713Z,-2.24
2019-01-25T03:56:37.333Z,-2.22
2019-01-25T03:59:07.694Z,-2.23
2019-01-25T04:01:38.006Z,-2.24
2019-01-25T04:04:08.321Z,-2.26
2019-01-25T04:06:41.788Z,-2.26
2019-01-25T04:09:12.307Z,-2.27
2019-01-25T04:11:42.623Z,-2.26
2019-01-25T04:14:16.350Z,-2.27
2019-01-25T04:16:46.904Z,-2.28
2019-01-25T04:19:17.252Z,-2.29
2019-01-25T04:21:49.321Z,-2.31
2019-01-25T04:24:19.831Z,-2.35
2019-01-25T04:26:50.136Z,-2.37
2019-01-25T04:29:22.236Z,-2.38
2019-01-25T04:31:52.798Z,-2.37
2019-01-25T04:34:23.114Z,-2.37
2019-01-25T04:36:56.458Z,-2.36
2019-01-25T04:39:26.725Z,-2.35
2019-01-25T04:41:59.401Z,-2.39
2019-01-25T04:44:29.727Z,-2.39
2019-01-25T04:47:01.067Z,-2.44
2019-01-25T04:49:37.016Z,-2.42
2019-01-25T04:52:14.903Z,-2.39
2019-01-25T04:54:46.683Z,-2.36
2019-01-25T04:57:18.993Z,-2.34
2019-01-25T04:59:49.394Z,-2.34
2019-01-25T05:02:20.034Z,-2.32
2019-01-25T05:04:50.628Z,-2.31
2019-01-25T05:07:23.070Z,-2.33
2019-01-25T05:09:53.508Z,-2.36
2019-01-25T05:12:24.176Z,-2.38
2019-01-25T05:14:54.453Z,-2.38
2019-01-25T05:17:27.821Z,-2.36
2019-01-25T05:19:58.416Z,-2.35
2019-01-25T05:22:31.182Z,-2.35
2019-01-25T05:25:01.437Z,-2.32
2019-01-25T05:27:32.047Z,-2.27
2019-01-25T05:30:04.139Z,-2.24
2019-01-25T05:32:37.079Z,-2.19
2019-01-25T05:35:07.632Z,-2.16
2019-01-25T05:37:41.426Z,-2.14
2019-01-25T05:40:17.207Z,-2.11
2019-01-25T05:42:49.105Z,-2.11
2019-01-25T05:45:19.776Z,-2.09
2019-01-25T05:47:50.704Z,-2.07
2019-01-25T05:50:21.046Z,-2.06
2019-01-25T05:52:58.868Z,-2.06
2019-01-25T05:55:29.498Z,-2.05
2019-01-25T05:58:02.426Z,-2.04
2019-01-25T06:00:37.328Z,-2.01
2019-01-25T06:03:14.010Z,-2.01
2019-01-25T06:05:45.590Z,-2.00
2019-01-25T06:08:45.833Z,-2.01
2019-01-25T06:11:19.370Z,-2.01
2019-01-25T06:13:50.634Z,-1.98
2019-01-25T06:16:21.374Z,-1.99
2019-01-25T06:18:57.126Z,-2.00
2019-01-25T06:21:28.932Z,-2.01
2019-01-25T06:23:59.301Z,-2.01
2019-01-25T06:26:31.181Z,-1.99
2019-01-25T06:29:01.803Z,-1.97
2019-01-25T06:31:37.553Z,-1.97
2019-01-25T06:34:07.895Z,-1.95
2019-01-25T06:36:40.807Z,-1.92
2019-01-25T06:39:12.575Z,-1.90
2019-01-25T06:41:44.153Z,-1.87
2019-01-25T06:44:16.220Z,-1.86
2019-01-25T06:46:48.629Z,-1.81
2019-01-25T06:49:19.244Z,-1.79
2019-01-25T06:51:49.995Z,-1.73
2019-01-25T06:54:20.323Z,-1.75
2019-01-25T06:56:53.504Z,-1.73
2019-01-25T06:59:27.008Z,-1.75
2019-01-25T07:02:12.815Z,-1.79
2019-01-25T07:04:43.198Z,-1.81
2019-01-25T07:07:38.735Z,-1.80
2019-01-25T07:10:13.759Z,-1.79
2019-01-25T07:12:45.509Z,-1.81
2019-01-25T07:15:19.874Z,-1.85
2019-01-25T07:17:50.490Z,-1.85
2019-01-25T07:20:23.664Z,-1.85
2019-01-25T07:22:56.762Z,-1.86
2019-01-25T07:25:27.103Z,-1.87
2019-01-25T07:27:59.251Z,-1.86
2019-01-25T07:30:29.598Z,-1.88
2019-01-25T07:33:00.008Z,-1.87
2019-01-25T07:35:30.412Z,-1.87
2019-01-25T07:38:00.783Z,-1.85
2019-01-25T07:40:32.798Z,-1.84
2019-01-25T07:43:03.127Z,-1.77
2019-01-25T07:45:35.071Z,-1.77
2019-01-25T07:48:08.260Z,-1.76
2019-01-25T07:50:38.859Z,-1.77
2019-01-25T07:53:14.930Z,-1.77
2019-01-25T07:55:50.652Z,-1.72
2019-01-25T07:58:21.541Z,-1.70
2019-01-25T08:00:53.209Z,-1.68
2019-01-25T08:03:23.552Z,-1.67
2019-01-25T08:05:57.353Z,-1.62
2019-01-25T08:08:27.904Z,-1.60
2019-01-25T08:10:59.093Z,-1.55
2019-01-25T08:13:29.499Z,-1.51
2019-01-25T08:16:00.224Z,-1.49
2019-01-25T08:18:33.399Z,-1.46
2019-01-25T08:21:05.516Z,-1.41
2019-01-25T08:23:36.991Z,-1.40
2019-01-25T08:26:08.020Z,-1.37
2019-01-25T08:28:38.582Z,-1.34
2019-01-25T08:31:08.880Z,-1.30
2019-01-25T08:33:39.221Z,-1.27
2019-01-25T08:36:09.808Z,-1.26
2019-01-25T08:38:41.782Z,-1.24
2019-01-25T08:41:12.268Z,-1.22
2019-01-25T08:43:43.266Z,-1.20
2019-01-25T08:46:15.575Z,-1.21
2019-01-25T08:48:46.305Z,-1.15
2019-01-25T08:51:16.755Z,-1.15
2019-01-25T08:53:47.635Z,-1.18
2019-01-25T08:56:18.982Z,-1.19
2019-01-25T08:58:54.291Z,-1.11
2019-01-25T09:01:21.514Z,-1.03
2019-01-25T09:04:01.639Z,-0.99
2019-01-25T09:06:36.500Z,-1.03
2019-01-25T09:09:10.909Z,-1.00
2019-01-25T09:11:41.474Z,-0.98
2019-01-25T09:14:11.807Z,-0.94
2019-01-25T09:16:42.244Z,-0.89
2019-01-25T09:19:13.136Z,-0.75
2019-01-25T09:21:45.287Z,-0.63
2019-01-25T09:24:15.833Z,-0.54
2019-01-25T09:26:46.386Z,-0.54
2019-01-25T09:29:18.215Z,-0.66
2019-01-25T09:31:48.873Z,-0.66
2019-01-25T09:34:20.565Z,-0.57
2019-01-25T09:36:50.938Z,-0.50
2019-01-25T09:39:21.270Z,-0.40
2019-01-25T09:41:58.444Z,-0.31
2019-01-25T09:44:23.964Z,-0.27
2019-01-25T09:46:55.519Z,-0.28
2019-01-25T09:49:29.597Z,-0.27
2019-01-25T09:51:59.963Z,-0.26
2019-01-25T09:54:32.410Z,-0.22
2019-01-25T09:57:04.460Z,-0.16
2019-01-25T09:59:37.601Z,-0.09
2019-01-25T10:02:08.150Z,-0.05
2019-01-25T10:04:39.364Z,0.02
2019-01-25T10:07:09.826Z,0.09
2019-01-25T10:09:40.224Z,0.10
2019-01-25T10:12:10.906Z,0.11
2019-01-25T10:14:41.225Z,0.15
2019-01-25T10:17:11.509Z,0.19
2019-01-25T10:19:42.035Z,0.26
2019-01-25T10:22:13.122Z,0.33
2019-01-25T10:24:46.223Z,0.45
2019-01-25T10:27:16.919Z,0.51
2019-01-25T10:30:05.519Z,0.55
2019-01-25T10:32:25.207Z,0.58
2019-01-25T10:34:55.919Z,0.63
2019-01-25T10:37:28.080Z,0.70
2019-01-25T10:39:58.472Z,0.78
2019-01-25T10:42:29.192Z,0.88
2019-01-25T10:45:04.420Z,0.96
2019-01-25T10:47:33.393Z,1.06
2019-01-25T10:50:12.302Z,1.12
2019-01-25T10:52:39.836Z,1.18
2019-01-25T10:55:11.736Z,1.20
2019-01-25T10:57:42.510Z,1.28
2019-01-25T11:00:15.304Z,1.38
2019-01-25T11:02:47.883Z,1.37
2019-01-25T11:05:20.980Z,1.33
2019-01-25T11:07:51.327Z,1.29
2019-01-25T11:10:24.781Z,1.32
2019-01-25T11:13:00.683Z,1.28
2019-01-25T11:15:33.377Z,1.24
2019-01-25T11:18:01.577Z,1.18
2019-01-25T11:20:32.897Z,1.16
2019-01-25T11:23:03.226Z,1.17
2019-01-25T11:25:36.324Z,1.20
2019-01-25T11:28:06.715Z,1.27
2019-01-25T11:30:37.168Z,1.40
2019-01-25T11:33:09.001Z,1.52
2019-01-25T11:35:39.305Z,1.49
2019-01-25T11:38:18.246Z,1.44
2019-01-25T11:40:48.613Z,1.39
2019-01-25T11:43:19.174Z,1.35
2019-01-25T11:45:54.393Z,1.39
2019-01-25T11:48:23.469Z,1.50
2019-01-25T11:50:53.948Z,1.60
2019-01-25T11:53:24.360Z,1.68
2019-01-25T11:55:54.655Z,1.71
2019-01-25T11:58:26.460Z,1.71
2019-01-25T12:01:02.690Z,1.69
2019-01-25T12:03:33.614Z,1.70
2019-01-25T12:06:08.235Z,1.88
2019-01-25T12:08:38.043Z,2.04
2019-01-25T12:11:08.636Z,2.16
2019-01-25T12:13:39.514Z,2.19
2019-01-25T12:16:09.971Z,2.30
2019-01-25T12:18:50.996Z,2.40
2019-01-25T12:21:21.370Z,2.45
2019-01-25T12:23:56.455Z,2.46
2019-01-25T12:26:27.039Z,2.54
2019-01-25T12:28:57.437Z,2.56
2019-01-25T12:31:27.906Z,2.53
2019-01-25T12:33:58.593Z,2.55
2019-01-25T12:36:35.500Z,2.66
2019-01-25T12:39:01.282Z,2.65
2019-01-25T12:41:37.466Z,2.56
2019-01-25T12:44:08.097Z,2.46
2019-01-25T12:46:38.711Z,2.48
2019-01-25T12:49:09.135Z,2.59
2019-01-25T12:51:53.791Z,2.72
2019-01-25T12:54:24.115Z,2.83
2019-01-25T12:56:54.692Z,2.97
2019-01-25T12:59:27.168Z,3.10
2019-01-25T13:01:57.244Z,3.25
2019-01-25T13:04:27.571Z,3.30
2019-01-25T13:07:00.491Z,3.25
2019-01-25T13:09:31.208Z,3.16
2019-01-25T13:12:01.861Z,3.14
2019-01-25T13:14:32.633Z,3.08
2019-01-25T13:17:03.432Z,2.93
2019-01-25T13:19:35.977Z,2.86
2019-01-25T13:22:06.391Z,2.84
2019-01-25T13:24:36.719Z,2.84
2019-01-25T13:27:07.480Z,2.80
2019-01-25T13:29:38.819Z,2.84
2019-01-25T13:32:14.537Z,2.94
2019-01-25T13:34:43.633Z,3.01
2019-01-25T13:37:14.259Z,3.02
2019-01-25T13:39:44.616Z,3.01
2019-01-25T13:42:15.208Z,2.96
2019-01-25T13:44:47.306Z,2.92
2019-01-25T13:47:17.724Z,2.80
2019-01-25T13:49:49.670Z,2.78
2019-01-25T13:52:20.968Z,2.78
2019-01-25T13:54:52.033Z,2.69
2019-01-25T13:57:22.485Z,2.59
2019-01-25T13:59:52.832Z,2.63
2019-01-25T14:02:23.199Z,2.67
2019-01-25T14:04:53.728Z,2.67
2019-01-25T14:07:24.120Z,2.63
2019-01-25T14:09:55.535Z,2.64
2019-01-25T14:12:27.405Z,2.64
2019-01-25T14:14:59.750Z,2.76
2019-01-25T14:17:30.051Z,2.83
2019-01-25T14:20:00.552Z,2.92
2019-01-25T14:22:32.219Z,2.95
2019-01-25T14:25:02.605Z,3.00
2019-01-25T14:27:41.764Z,2.98
2019-01-25T14:30:17.022Z,2.86
2019-01-25T14:32:47.404Z,2.79
2019-01-25T14:35:18.658Z,2.74
2019-01-25T14:37:48.909Z,2.72
2019-01-25T14:40:21.066Z,2.66
2019-01-25T14:42:58.869Z,2.62
2019-01-25T14:45:30.860Z,2.58
2019-01-25T14:48:01.281Z,2.55
2019-01-25T14:50:32.906Z,2.56
2019-01-25T14:53:03.708Z,2.60
2019-01-25T14:55:35.416Z,2.62
2019-01-25T14:58:07.267Z,2.65
2019-01-25T15:00:39.716Z,2.68
2019-01-25T15:03:10.332Z,2.66
2019-01-25T15:05:42.124Z,2.65
2019-01-25T15:08:12.701Z,2.62
2019-01-25T15:10:43.049Z,2.60
2019-01-25T15:13:13.504Z,2.59
2019-01-25T15:15:44.003Z,2.58
2019-01-25T15:18:18.290Z,2.55
2019-01-25T15:20:50.438Z,2.54
2019-01-25T15:23:21.038Z,2.51
2019-01-25T15:25:52.772Z,2.49
2019-01-25T15:28:25.174Z,2.47
2019-01-25T15:30:55.486Z,2.47
2019-01-25T15:33:27.811Z,2.43
2019-01-25T15:36:00.059Z,2.37
2019-01-25T15:38:30.439Z,2.26
2019-01-25T15:41:01.518Z,2.13
2019-01-25T15:43:35.847Z,1.82
2019-01-25T15:46:14.320Z,1.82
2019-01-25T15:48:45.013Z,1.74
2019-01-25T15:51:15.432Z,1.65
2019-01-25T15:53:49.783Z,1.59
2019-01-25T15:56:20.101Z,1.56
2019-01-25T15:58:50.708Z,1.53
2019-01-25T16:01:23.954Z,1.51
2019-01-25T16:03:54.600Z,1.49
2019-01-25T16:06:25.286Z,1.47
2019-01-25T16:09:03.002Z,1.40
2019-01-25T16:11:34.347Z,1.40
2019-01-25T16:14:04.862Z,1.43
2019-01-25T16:16:36.715Z,1.44
2019-01-25T16:19:07.348Z,1.42
2019-01-25T16:21:38.464Z,1.38
2019-01-25T16:24:12.782Z,1.36
2019-01-25T16:26:44.403Z,1.36
2019-01-25T16:29:15.296Z,1.34
2019-01-25T16:31:46.070Z,1.31
2019-01-25T16:34:16.897Z,1.27
2019-01-25T16:36:47.328Z,1.25
2019-01-25T16:39:18.516Z,1.24
2019-01-25T16:41:52.344Z,1.23
2019-01-25T16:44:25.693Z,1.24
2019-01-25T16:46:58.868Z,1.23
2019-01-25T16:49:31.676Z,1.21
2019-01-25T16:52:02.293Z,1.22
2019-01-25T16:54:34.413Z,1.21
2019-01-25T16:57:04.937Z,1.21
2019-01-25T16:59:35.744Z,1.23
2019-01-25T17:02:21.227Z,1.22
2019-01-25T17:04:41.838Z,1.23
2019-01-25T17:07:12.291Z,1.24
2019-01-25T17:09:47.870Z,1.25
2019-01-25T17:12:18.338Z,1.26
2019-01-25T17:14:48.955Z,1.28
2019-01-25T17:17:22.595Z,1.25
2019-01-25T17:19:53.508Z,1.26
2019-01-25T17:22:24.497Z,1.26
2019-01-25T17:24:55.197Z,1.24
2019-01-25T17:27:25.831Z,1.24
2019-01-25T17:29:56.718Z,1.27
2019-01-25T17:32:27.270Z,1.26
2019-01-25T17:34:57.815Z,1.27
2019-01-25T17:37:28.376Z,1.25
2019-01-25T17:40:03.129Z,1.25
2019-01-25T17:42:35.370Z,1.29
2019-01-25T17:45:06.739Z,1.31
2019-01-25T17:47:40.879Z,1.33
2019-01-25T17:50:12.852Z,1.35
2019-01-25T17:52:44.492Z,1.35
2019-01-25T17:55:17.058Z,1.35
2019-01-25T17:57:47.745Z,1.37
2019-01-25T18:00:26.873Z,1.37
2019-01-25T18:02:57.222Z,1.37
2019-01-25T18:05:39.108Z,1.39
2019-01-25T18:08:06.184Z,1.41
2019-01-25T18:10:37.757Z,1.43
2019-01-25T18:13:20.858Z,1.42
2019-01-25T18:15:45.780Z,1.44
2019-01-25T18:18:16.469Z,1.45
2019-01-25T18:20:47.249Z,1.46
2019-01-25T18:28:58.391Z,1.53
2019-01-25T18:31:31.645Z,1.53
2019-01-25T18:34:05.334Z,1.56
2019-01-25T18:36:36.309Z,1.56
2019-01-25T18:39:09.458Z,1.61
2019-01-25T18:41:41.816Z,1.65
2019-01-25T18:44:14.064Z,1.64
2019-01-25T18:46:45.519Z,1.67
2019-01-25T18:49:16.059Z,1.68
2019-01-25T18:51:47.273Z,1.67
2019-01-25T18:54:18.257Z,1.67
2019-01-25T18:56:53.754Z,1.67
2019-01-25T18:59:42.023Z,1.66
2019-01-25T19:02:12.715Z,1.65
2019-01-25T19:04:47.096Z,1.68
2019-01-25T19:07:18.022Z,1.69
2019-01-25T19:09:49.737Z,1.69
2019-01-25T19:12:20.334Z,1.68
2019-01-25T19:14:50.698Z,1.69
2019-01-25T19:17:23.670Z,1.69
2019-01-25T19:19:53.980Z,1.70
2019-01-25T19:22:28.863Z,1.71
2019-01-25T19:25:00.956Z,1.72
2019-01-25T19:27:31.673Z,1.73
2019-01-25T19:30:10.320Z,1.78
2019-01-25T19:32:36.900Z,1.79
2019-01-25T19:35:08.787Z,1.80
2019-01-25T19:37:39.525Z,1.81
2019-01-25T19:40:14.295Z,1.82
2019-01-25T19:42:45.128Z,1.79
2019-01-25T19:45:19.487Z,1.81
2019-01-25T19:47:50.696Z,1.83
2019-01-25T19:50:21.690Z,1.84
2019-01-25T19:52:52.272Z,1.84
2019-01-25T19:55:27.637Z,1.83
2019-01-25T19:57:58.726Z,1.82
2019-01-25T20:00:35.430Z,1.81
2019-01-25T20:03:13.453Z,1.81
2019-01-25T20:05:44.225Z,1.83
2019-01-25T20:08:15.006Z,1.84
2019-01-25T20:10:49.216Z,1.86
2019-01-25T20:13:20.039Z,1.87
2019-01-25T20:15:50.675Z,1.89
2019-01-25T20:18:23.382Z,1.89
2019-01-25T20:20:55.040Z,1.89
2019-01-25T20:23:26.535Z,1.94
2019-01-25T20:25:58.062Z,1.98
2019-01-25T20:28:40.767Z,1.98
2019-01-25T20:31:12.974Z,2.01
2019-01-25T20:33:43.657Z,2.01
2019-01-25T20:36:14.474Z,2.03
2019-01-25T20:38:45.423Z,2.05
2019-01-25T20:41:15.782Z,2.06
2019-01-25T20:43:46.295Z,2.10
2019-01-25T20:46:17.399Z,2.10
2019-01-25T20:48:55.147Z,2.10
2019-01-25T20:51:22.551Z,2.13
2019-01-25T20:53:54.713Z,2.12
2019-01-25T20:56:25.367Z,2.11
2019-01-25T20:58:57.754Z,2.15
2019-01-25T21:01:32.574Z,2.17
2019-01-25T21:06:43.682Z,2.21
2019-01-25T21:09:14.457Z,2.23
2019-01-25T21:11:51.812Z,2.27
2019-01-25T21:14:24.103Z,2.28
2019-01-25T21:16:55.585Z,2.32
2019-01-25T21:19:29.044Z,2.34
2019-01-25T21:22:00.965Z,2.36
2019-01-25T21:24:31.616Z,2.40
2019-01-25T21:27:03.807Z,2.41
2019-01-25T21:29:34.461Z,2.46
2019-01-25T21:32:04.798Z,2.47
2019-01-25T21:34:35.448Z,2.51
2019-01-25T21:37:05.941Z,2.52
2019-01-25T21:39:36.835Z,2.54
2019-01-25T21:42:07.196Z,2.55
2019-01-25T21:44:39.979Z,2.59
2019-01-25T21:47:10.373Z,2.58
2019-01-25T21:49:40.938Z,2.61
2019-01-25T21:52:16.035Z,2.62
2019-01-25T21:54:46.924Z,2.64
2019-01-25T21:57:17.688Z,2.66
2019-01-25T21:59:48.525Z,2.68
2019-01-25T22:02:18.893Z,2.69
2019-01-25T22:04:49.213Z,2.71
2019-01-25T22:07:20.557Z,2.72
2019-01-25T22:09:52.050Z,2.78
2019-01-25T22:12:22.616Z,2.79
2019-01-25T22:14:53.055Z,2.82
2019-01-25T22:17:25.190Z,2.82
2019-01-25T22:19:57.439Z,2.85
2019-01-25T22:22:27.835Z,2.88
2019-01-25T22:24:58.176Z,2.89
2019-01-25T22:27:29.802Z,2.91
2019-01-25T22:30:00.332Z,2.95
2019-01-25T22:32:32.438Z,2.98
2019-01-25T22:35:02.884Z,3.00
2019-01-25T22:37:33.374Z,3.06
2019-01-25T22:40:04.960Z,3.08
2019-01-25T22:42:44.467Z,3.08
2019-01-25T22:45:17.296Z,3.13
2019-01-25T22:47:47.756Z,3.15
2019-01-25T22:50:22.797Z,3.19
2019-01-25T22:52:53.428Z,3.22
2019-01-25T22:55:26.700Z,3.21
2019-01-25T22:57:57.196Z,3.21
2019-01-25T23:01:07.970Z,3.23
2019-01-25T23:03:55.236Z,3.22
2019-01-25T23:06:42.497Z,3.25
2019-01-25T23:09:25.525Z,3.25
2019-01-25T23:11:56.324Z,3.27
2019-01-25T23:14:30.387Z,3.31
2019-01-25T23:17:01.307Z,3.33
2019-01-25T23:19:33.000Z,3.35
2019-01-25T23:22:05.186Z,3.36
2019-01-25T23:24:38.199Z,3.39
2019-01-25T23:27:08.597Z,3.43
2019-01-25T23:29:40.386Z,3.45
2019-01-25T23:32:12.346Z,3.56
2019-01-25T23:34:44.812Z,3.56
2019-01-25T23:37:15.246Z,3.55
2019-01-25T23:39:45.864Z,3.57
2019-01-25T23:42:16.177Z,3.59
2019-01-25T23:44:46.673Z,3.61
2019-01-25T23:47:17.377Z,3.65
2019-01-25T23:49:47.943Z,3.68
2019-01-25T23:52:20.618Z,3.71
2019-01-25T23:54:52.040Z,3.74
2019-01-25T23:57:22.703Z,3.74
2019-01-25T23:59:53.050Z,3.76
